Terminal Aerodrome Forecast
Issued by NWS Charleston, WV

Home | Current Version | Previous Version | Text Only | Print | Product List | Glossary On
Versions: 1 2 3 4 5 6 7 8 9 10 11 12 13 14 15 16 17 18 19 20 21 22 23
000
FTUS41 KRLX 181700
TAFBKW
TAF
KBKW 181738Z 1818/1918 31005KT P6SM SCT020 BKN070
      TEMPO 1819/1821 BKN020
     FM190800 30004KT 6SM -SHSN BKN020
     FM191700 30006KT P6SM SCT025=

USA.gov is the U.S. government's official web portal to all federal, state and local government web resources and services.